sensor_id;sensor_type;location;lat;lon;timestamp;temperature;humidity
62154;DHT22;48140;45.486;9.226;2023-11-21T00:02:02;10.30;99.90
62154;DHT22;48140;45.486;9.226;2023-11-21T00:04:27;10.30;99.90
62154;DHT22;48140;45.486;9.226;2023-11-21T00:06:54;10.40;99.90
62154;DHT22;48140;45.486;9.226;2023-11-21T00:09:19;10.30;99.90
62154;DHT22;48140;45.486;9.226;2023-11-21T00:11:45;10.40;99.90
62154;DHT22;48140;45.486;9.226;2023-11-21T00:14:10;10.40;99.90
62154;DHT22;48140;45.486;9.226;2023-11-21T00:16:36;10.40;99.90
62154;DHT22;48140;45.486;9.226;2023-11-21T00:19:02;10.40;99.90
62154;DHT22;48140;45.486;9.226;2023-11-21T00:21:27;10.40;99.90
62154;DHT22;48140;45.486;9.226;2023-11-21T00:23:53;10.40;99.90
62154;DHT22;48140;45.486;9.226;2023-11-21T00:26:18;10.40;99.90
62154;DHT22;48140;45.486;9.226;2023-11-21T00:28:44;10.40;99.90
62154;DHT22;48140;45.486;9.226;2023-11-21T00:31:09;10.40;99.90
62154;DHT22;48140;45.486;9.226;2023-11-21T00:33:35;10.40;99.90
62154;DHT22;48140;45.486;9.226;2023-11-21T00:36:00;10.40;99.90
62154;DHT22;48140;45.486;9.226;2023-11-21T00:38:26;10.40;99.90
62154;DHT22;48140;45.486;9.226;2023-11-21T00:40:52;10.50;99.90
62154;DHT22;48140;45.486;9.226;2023-11-21T00:43:24;10.40;99.90
62154;DHT22;48140;45.486;9.226;2023-11-21T00:45:49;10.40;99.90
62154;DHT22;48140;45.486;9.226;2023-11-21T00:48:15;10.50;99.90
62154;DHT22;48140;45.486;9.226;2023-11-21T00:50:40;10.40;99.90
62154;DHT22;48140;45.486;9.226;2023-11-21T00:53:06;10.40;99.90
62154;DHT22;48140;45.486;9.226;2023-11-21T00:55:32;10.50;99.90
62154;DHT22;48140;45.486;9.226;2023-11-21T00:57:58;10.50;99.90
62154;DHT22;48140;45.486;9.226;2023-11-21T01:00:25;10.50;99.90
62154;DHT22;48140;45.486;9.226;2023-11-21T01:02:50;10.50;99.90
62154;DHT22;48140;45.486;9.226;2023-11-21T01:05:16;10.50;99.90
62154;DHT22;48140;45.486;9.226;2023-11-21T01:07:41;10.60;99.90
62154;DHT22;48140;45.486;9.226;2023-11-21T01:10:07;10.50;99.90
62154;DHT22;48140;45.486;9.226;2023-11-21T01:12:37;10.50;99.90
62154;DHT22;48140;45.486;9.226;2023-11-21T01:15:03;10.50;99.90
62154;DHT22;48140;45.486;9.226;2023-11-21T01:17:29;10.50;99.90
62154;DHT22;48140;45.486;9.226;2023-11-21T01:19:54;10.50;99.90
62154;DHT22;48140;45.486;9.226;2023-11-21T01:22:21;10.50;99.90
62154;DHT22;48140;45.486;9.226;2023-11-21T01:24:51;10.60;99.90
62154;DHT22;48140;45.486;9.226;2023-11-21T01:27:17;10.60;99.90
62154;DHT22;48140;45.486;9.226;2023-11-21T01:29:42;10.50;99.90
62154;DHT22;48140;45.486;9.226;2023-11-21T01:32:08;10.50;99.90
62154;DHT22;48140;45.486;9.226;2023-11-21T01:34:33;10.50;99.90
62154;DHT22;48140;45.486;9.226;2023-11-21T01:36:59;10.50;99.90
62154;DHT22;48140;45.486;9.226;2023-11-21T01:39:24;10.50;99.90
62154;DHT22;48140;45.486;9.226;2023-11-21T01:41:51;10.60;99.90
62154;DHT22;48140;45.486;9.226;2023-11-21T01:44:17;10.70;99.90
62154;DHT22;48140;45.486;9.226;2023-11-21T01:46:45;10.70;99.90
62154;DHT22;48140;45.486;9.226;2023-11-21T01:49:10;10.60;99.90
62154;DHT22;48140;45.486;9.226;2023-11-21T01:51:39;10.60;99.90
62154;DHT22;48140;45.486;9.226;2023-11-21T01:54:05;10.50;99.90
62154;DHT22;48140;45.486;9.226;2023-11-21T01:56:31;10.50;99.90
62154;DHT22;48140;45.486;9.226;2023-11-21T01:58:57;10.50;99.90
62154;DHT22;48140;45.486;9.226;2023-11-21T02:01:24;10.60;99.90
62154;DHT22;48140;45.486;9.226;2023-11-21T02:03:51;10.50;99.90
62154;DHT22;48140;45.486;9.226;2023-11-21T02:06:16;10.50;99.90
62154;DHT22;48140;45.486;9.226;2023-11-21T02:08:42;10.50;99.90
62154;DHT22;48140;45.486;9.226;2023-11-21T02:11:09;10.60;99.90
62154;DHT22;48140;45.486;9.226;2023-11-21T02:13:38;10.60;99.90
62154;DHT22;48140;45.486;9.226;2023-11-21T02:16:04;10.50;99.90
62154;DHT22;48140;45.486;9.226;2023-11-21T02:18:30;10.50;99.90
62154;DHT22;48140;45.486;9.226;2023-11-21T02:20:56;10.60;99.90
62154;DHT22;48140;45.486;9.226;2023-11-21T02:23:21;10.60;99.90
62154;DHT22;48140;45.486;9.226;2023-11-21T02:25:48;10.60;99.90
62154;DHT22;48140;45.486;9.226;2023-11-21T02:28:14;10.60;99.90
62154;DHT22;48140;45.486;9.226;2023-11-21T02:30:41;10.60;99.90
62154;DHT22;48140;45.486;9.226;2023-11-21T02:33:07;10.60;99.90
62154;DHT22;48140;45.486;9.226;2023-11-21T02:35:33;10.60;99.90
62154;DHT22;48140;45.486;9.226;2023-11-21T02:37:58;10.60;99.90
62154;DHT22;48140;45.486;9.226;2023-11-21T02:40:24;10.60;99.90
62154;DHT22;48140;45.486;9.226;2023-11-21T02:42:52;10.60;99.90
62154;DHT22;48140;45.486;9.226;2023-11-21T02:45:21;10.60;99.90
62154;DHT22;48140;45.486;9.226;2023-11-21T02:47:47;10.60;99.90
62154;DHT22;48140;45.486;9.226;2023-11-21T02:50:12;10.60;99.90
62154;DHT22;48140;45.486;9.226;2023-11-21T02:52:38;10.60;99.90
62154;DHT22;48140;45.486;9.226;2023-11-21T02:55:05;10.60;99.90
62154;DHT22;48140;45.486;9.226;2023-11-21T02:57:32;10.60;99.90
62154;DHT22;48140;45.486;9.226;2023-11-21T02:59:58;10.60;99.90
62154;DHT22;48140;45.486;9.226;2023-11-21T03:02:25;10.60;99.90
62154;DHT22;48140;45.486;9.226;2023-11-21T03:04:50;10.50;99.90
62154;DHT22;48140;45.486;9.226;2023-11-21T03:07:16;10.50;99.90
62154;DHT22;48140;45.486;9.226;2023-11-21T03:09:42;10.50;99.90
62154;DHT22;48140;45.486;9.226;2023-11-21T03:12:07;10.50;99.90
62154;DHT22;48140;45.486;9.226;2023-11-21T03:14:34;10.60;99.90
62154;DHT22;48140;45.486;9.226;2023-11-21T03:16:59;10.70;99.90
62154;DHT22;48140;45.486;9.226;2023-11-21T03:19:25;10.70;99.90
62154;DHT22;48140;45.486;9.226;2023-11-21T03:21:50;10.60;99.90
62154;DHT22;48140;45.486;9.226;2023-11-21T03:24:18;10.60;99.90
62154;DHT22;48140;45.486;9.226;2023-11-21T03:26:45;10.60;99.90
62154;DHT22;48140;45.486;9.226;2023-11-21T03:29:12;10.60;99.90
62154;DHT22;48140;45.486;9.226;2023-11-21T03:31:37;10.60;99.90
62154;DHT22;48140;45.486;9.226;2023-11-21T03:34:03;10.60;99.90
62154;DHT22;48140;45.486;9.226;2023-11-21T03:36:29;10.60;99.90
62154;DHT22;48140;45.486;9.226;2023-11-21T03:38:54;10.60;99.90
62154;DHT22;48140;45.486;9.226;2023-11-21T03:41:20;10.60;99.90
62154;DHT22;48140;45.486;9.226;2023-11-21T03:43:46;10.60;99.90
62154;DHT22;48140;45.486;9.226;2023-11-21T03:46:11;10.60;99.90
62154;DHT22;48140;45.486;9.226;2023-11-21T03:48:37;10.60;99.90
62154;DHT22;48140;45.486;9.226;2023-11-21T03:51:03;10.60;99.90
62154;DHT22;48140;45.486;9.226;2023-11-21T03:53:29;10.60;99.90
62154;DHT22;48140;45.486;9.226;2023-11-21T03:55:54;10.50;99.90
62154;DHT22;48140;45.486;9.226;2023-11-21T03:58:20;10.60;99.90
62154;DHT22;48140;45.486;9.226;2023-11-21T04:00:46;10.60;99.90
62154;DHT22;48140;45.486;9.226;2023-11-21T04:03:12;10.60;99.90
62154;DHT22;48140;45.486;9.226;2023-11-21T04:05:38;10.60;99.90
62154;DHT22;48140;45.486;9.226;2023-11-21T04:08:04;10.60;99.90
62154;DHT22;48140;45.486;9.226;2023-11-21T04:10:29;10.60;99.90
62154;DHT22;48140;45.486;9.226;2023-11-21T04:12:55;10.60;99.90
62154;DHT22;48140;45.486;9.226;2023-11-21T04:15:21;10.60;99.90
62154;DHT22;48140;45.486;9.226;2023-11-21T04:17:46;10.50;99.90
62154;DHT22;48140;45.486;9.226;2023-11-21T04:20:14;10.50;99.90
62154;DHT22;48140;45.486;9.226;2023-11-21T04:22:40;10.50;99.90
62154;DHT22;48140;45.486;9.226;2023-11-21T04:25:08;10.60;99.90
62154;DHT22;48140;45.486;9.226;2023-11-21T04:27:33;10.50;99.90
62154;DHT22;48140;45.486;9.226;2023-11-21T04:29:59;10.50;99.90
62154;DHT22;48140;45.486;9.226;2023-11-21T04:32:25;10.50;99.90
62154;DHT22;48140;45.486;9.226;2023-11-21T04:34:50;10.50;99.90
62154;DHT22;48140;45.486;9.226;2023-11-21T04:37:16;10.50;99.90
62154;DHT22;48140;45.486;9.226;2023-11-21T04:39:41;10.50;99.90
62154;DHT22;48140;45.486;9.226;2023-11-21T04:42:07;10.50;99.90
62154;DHT22;48140;45.486;9.226;2023-11-21T04:44:32;10.50;99.90
62154;DHT22;48140;45.486;9.226;2023-11-21T04:46:58;10.60;99.90
62154;DHT22;48140;45.486;9.226;2023-11-21T04:49:23;10.50;99.90
62154;DHT22;48140;45.486;9.226;2023-11-21T04:51:49;10.50;99.90
62154;DHT22;48140;45.486;9.226;2023-11-21T04:54:14;10.50;99.90
62154;DHT22;48140;45.486;9.226;2023-11-21T04:56:40;10.50;99.90
62154;DHT22;48140;45.486;9.226;2023-11-21T04:59:05;10.50;99.90
62154;DHT22;48140;45.486;9.226;2023-11-21T05:01:31;10.60;99.90
62154;DHT22;48140;45.486;9.226;2023-11-21T05:03:57;10.50;99.90
62154;DHT22;48140;45.486;9.226;2023-11-21T05:06:22;10.60;99.90
62154;DHT22;48140;45.486;9.226;2023-11-21T05:08:49;10.60;99.90
62154;DHT22;48140;45.486;9.226;2023-11-21T05:11:27;10.60;99.90
62154;DHT22;48140;45.486;9.226;2023-11-21T05:13:52;10.60;99.90
62154;DHT22;48140;45.486;9.226;2023-11-21T05:16:19;10.60;99.90
62154;DHT22;48140;45.486;9.226;2023-11-21T05:18:45;10.60;99.90
62154;DHT22;48140;45.486;9.226;2023-11-21T05:21:10;10.60;99.90
62154;DHT22;48140;45.486;9.226;2023-11-21T05:23:36;10.50;99.90
62154;DHT22;48140;45.486;9.226;2023-11-21T05:26:03;10.60;99.90
62154;DHT22;48140;45.486;9.226;2023-11-21T05:28:28;10.60;99.90
62154;DHT22;48140;45.486;9.226;2023-11-21T05:30:54;10.60;99.90
62154;DHT22;48140;45.486;9.226;2023-11-21T05:33:20;10.60;99.90
62154;DHT22;48140;45.486;9.226;2023-11-21T05:35:45;10.60;99.90
62154;DHT22;48140;45.486;9.226;2023-11-21T05:38:11;10.60;99.90
62154;DHT22;48140;45.486;9.226;2023-11-21T05:40:37;10.70;99.90
62154;DHT22;48140;45.486;9.226;2023-11-21T05:43:02;10.70;99.90
62154;DHT22;48140;45.486;9.226;2023-11-21T05:45:28;10.70;99.90
62154;DHT22;48140;45.486;9.226;2023-11-21T05:47:55;10.80;99.90
62154;DHT22;48140;45.486;9.226;2023-11-21T05:50:20;10.80;99.90
62154;DHT22;48140;45.486;9.226;2023-11-21T05:52:47;10.80;99.90
62154;DHT22;48140;45.486;9.226;2023-11-21T05:55:13;10.80;99.90
62154;DHT22;48140;45.486;9.226;2023-11-21T05:57:39;10.80;99.90
62154;DHT22;48140;45.486;9.226;2023-11-21T06:00:06;10.80;99.90
62154;DHT22;48140;45.486;9.226;2023-11-21T06:02:39;10.80;99.90
62154;DHT22;48140;45.486;9.226;2023-11-21T06:05:05;10.80;99.90
62154;DHT22;48140;45.486;9.226;2023-11-21T06:07:31;10.80;99.90
62154;DHT22;48140;45.486;9.226;2023-11-21T06:09:57;10.80;99.90
62154;DHT22;48140;45.486;9.226;2023-11-21T06:12:22;10.90;99.90
62154;DHT22;48140;45.486;9.226;2023-11-21T06:14:48;10.90;99.90
62154;DHT22;48140;45.486;9.226;2023-11-21T06:17:13;10.90;99.90
62154;DHT22;48140;45.486;9.226;2023-11-21T06:19:39;10.90;99.90
62154;DHT22;48140;45.486;9.226;2023-11-21T06:22:05;10.90;99.90
62154;DHT22;48140;45.486;9.226;2023-11-21T06:24:31;10.90;99.90
62154;DHT22;48140;45.486;9.226;2023-11-21T06:26:57;10.90;99.90
62154;DHT22;48140;45.486;9.226;2023-11-21T06:29:22;10.80;99.90
62154;DHT22;48140;45.486;9.226;2023-11-21T06:31:49;10.80;99.90
62154;DHT22;48140;45.486;9.226;2023-11-21T06:34:14;10.80;99.90
62154;DHT22;48140;45.486;9.226;2023-11-21T06:36:40;10.80;99.90
62154;DHT22;48140;45.486;9.226;2023-11-21T06:39:05;10.80;99.90
62154;DHT22;48140;45.486;9.226;2023-11-21T06:41:33;10.90;99.90
62154;DHT22;48140;45.486;9.226;2023-11-21T06:43:58;10.90;99.90
62154;DHT22;48140;45.486;9.226;2023-11-21T06:46:24;10.90;99.90
62154;DHT22;48140;45.486;9.226;2023-11-21T06:48:49;10.90;99.90
62154;DHT22;48140;45.486;9.226;2023-11-21T06:51:15;10.80;99.90
62154;DHT22;48140;45.486;9.226;2023-11-21T06:53:41;10.80;99.90
62154;DHT22;48140;45.486;9.226;2023-11-21T06:56:19;10.80;99.90
62154;DHT22;48140;45.486;9.226;2023-11-21T06:58:45;10.80;99.90
62154;DHT22;48140;45.486;9.226;2023-11-21T07:01:12;10.80;99.90
62154;DHT22;48140;45.486;9.226;2023-11-21T07:03:38;10.80;99.90
62154;DHT22;48140;45.486;9.226;2023-11-21T07:06:04;10.80;99.90
62154;DHT22;48140;45.486;9.226;2023-11-21T07:08:30;10.80;99.90
62154;DHT22;48140;45.486;9.226;2023-11-21T07:10:55;10.80;99.90
62154;DHT22;48140;45.486;9.226;2023-11-21T07:13:21;10.90;99.90
62154;DHT22;48140;45.486;9.226;2023-11-21T07:15:47;10.90;99.90
62154;DHT22;48140;45.486;9.226;2023-11-21T07:18:13;10.90;99.90
62154;DHT22;48140;45.486;9.226;2023-11-21T07:20:39;10.80;99.90
62154;DHT22;48140;45.486;9.226;2023-11-21T07:23:04;10.90;99.90
62154;DHT22;48140;45.486;9.226;2023-11-21T07:25:31;10.90;99.90
62154;DHT22;48140;45.486;9.226;2023-11-21T07:27:57;10.90;99.90
62154;DHT22;48140;45.486;9.226;2023-11-21T07:30:22;10.80;99.90
62154;DHT22;48140;45.486;9.226;2023-11-21T07:32:48;10.90;99.90
62154;DHT22;48140;45.486;9.226;2023-11-21T07:35:13;10.80;99.90
62154;DHT22;48140;45.486;9.226;2023-11-21T07:37:39;10.80;99.90
62154;DHT22;48140;45.486;9.226;2023-11-21T07:40:05;10.80;99.90
62154;DHT22;48140;45.486;9.226;2023-11-21T07:42:31;10.80;99.90
62154;DHT22;48140;45.486;9.226;2023-11-21T07:44:56;10.90;99.90
62154;DHT22;48140;45.486;9.226;2023-11-21T07:47:22;10.80;99.90
62154;DHT22;48140;45.486;9.226;2023-11-21T07:49:47;10.80;99.90
62154;DHT22;48140;45.486;9.226;2023-11-21T07:52:13;10.90;99.90
62154;DHT22;48140;45.486;9.226;2023-11-21T07:54:41;10.90;99.90
62154;DHT22;48140;45.486;9.226;2023-11-21T07:57:07;10.90;99.90
62154;DHT22;48140;45.486;9.226;2023-11-21T07:59:39;11.00;99.90
62154;DHT22;48140;45.486;9.226;2023-11-21T08:02:06;11.00;99.90
62154;DHT22;48140;45.486;9.226;2023-11-21T08:04:32;11.10;99.90
62154;DHT22;48140;45.486;9.226;2023-11-21T08:06:58;11.20;99.90
62154;DHT22;48140;45.486;9.226;2023-11-21T08:09:23;11.20;99.90
62154;DHT22;48140;45.486;9.226;2023-11-21T08:11:49;11.30;99.90
62154;DHT22;48140;45.486;9.226;2023-11-21T08:14:15;11.40;99.90
62154;DHT22;48140;45.486;9.226;2023-11-21T08:16:40;11.50;99.90
62154;DHT22;48140;45.486;9.226;2023-11-21T08:19:06;11.50;99.90
62154;DHT22;48140;45.486;9.226;2023-11-21T08:21:31;11.60;99.90
62154;DHT22;48140;45.486;9.226;2023-11-21T08:23:57;11.70;99.90
62154;DHT22;48140;45.486;9.226;2023-11-21T08:26:22;11.80;99.90
62154;DHT22;48140;45.486;9.226;2023-11-21T08:28:48;11.90;99.90
62154;DHT22;48140;45.486;9.226;2023-11-21T08:31:14;12.00;99.90
62154;DHT22;48140;45.486;9.226;2023-11-21T08:33:39;12.00;99.90
62154;DHT22;48140;45.486;9.226;2023-11-21T08:36:08;12.20;99.90
62154;DHT22;48140;45.486;9.226;2023-11-21T08:38:34;12.20;99.90
62154;DHT22;48140;45.486;9.226;2023-11-21T08:41:06;12.20;99.90
62154;DHT22;48140;45.486;9.226;2023-11-21T08:43:35;12.20;99.90
62154;DHT22;48140;45.486;9.226;2023-11-21T08:46:00;12.30;99.90
62154;DHT22;48140;45.486;9.226;2023-11-21T08:48:26;12.30;99.90
62154;DHT22;48140;45.486;9.226;2023-11-21T08:50:53;12.20;99.90
62154;DHT22;48140;45.486;9.226;2023-11-21T08:53:19;12.20;99.90
62154;DHT22;48140;45.486;9.226;2023-11-21T08:55:45;12.40;99.90
62154;DHT22;48140;45.486;9.226;2023-11-21T08:58:10;12.50;99.90
62154;DHT22;48140;45.486;9.226;2023-11-21T09:00:37;12.70;99.90
62154;DHT22;48140;45.486;9.226;2023-11-21T09:03:04;13.00;99.90
62154;DHT22;48140;45.486;9.226;2023-11-21T09:05:34;13.40;99.90
62154;DHT22;48140;45.486;9.226;2023-11-21T09:07:59;13.30;99.90
62154;DHT22;48140;45.486;9.226;2023-11-21T09:10:25;13.40;99.90
62154;DHT22;48140;45.486;9.226;2023-11-21T09:12:50;13.00;99.90
62154;DHT22;48140;45.486;9.226;2023-11-21T09:15:17;13.10;99.90
62154;DHT22;48140;45.486;9.226;2023-11-21T09:17:42;13.30;99.90
62154;DHT22;48140;45.486;9.226;2023-11-21T09:20:10;13.40;99.90
62154;DHT22;48140;45.486;9.226;2023-11-21T09:22:35;13.40;99.90
62154;DHT22;48140;45.486;9.226;2023-11-21T09:25:02;13.20;99.90
62154;DHT22;48140;45.486;9.226;2023-11-21T09:27:31;12.80;99.90
62154;DHT22;48140;45.486;9.226;2023-11-21T09:29:56;12.60;99.90
62154;DHT22;48140;45.486;9.226;2023-11-21T09:32:23;12.70;99.90
62154;DHT22;48140;45.486;9.226;2023-11-21T09:34:49;12.70;99.90
62154;DHT22;48140;45.486;9.226;2023-11-21T09:37:15;13.20;99.90
62154;DHT22;48140;45.486;9.226;2023-11-21T09:39:41;13.60;99.90
62154;DHT22;48140;45.486;9.226;2023-11-21T09:42:12;13.60;99.90
62154;DHT22;48140;45.486;9.226;2023-11-21T09:47:05;14.10;99.90
62154;DHT22;48140;45.486;9.226;2023-11-21T09:49:35;13.90;99.90
62154;DHT22;48140;45.486;9.226;2023-11-21T09:52:02;13.70;99.90
62154;DHT22;48140;45.486;9.226;2023-11-21T09:54:29;13.30;99.90
62154;DHT22;48140;45.486;9.226;2023-11-21T09:56:57;13.20;99.90
62154;DHT22;48140;45.486;9.226;2023-11-21T09:59:23;13.20;99.90
62154;DHT22;48140;45.486;9.226;2023-11-21T10:01:49;13.40;99.90
62154;DHT22;48140;45.486;9.226;2023-11-21T10:04:16;13.20;99.90
62154;DHT22;48140;45.486;9.226;2023-11-21T10:06:42;13.10;99.90
62154;DHT22;48140;45.486;9.226;2023-11-21T10:09:11;12.90;99.90
62154;DHT22;48140;45.486;9.226;2023-11-21T10:11:40;12.90;99.90
62154;DHT22;48140;45.486;9.226;2023-11-21T10:14:10;12.90;99.90
62154;DHT22;48140;45.486;9.226;2023-11-21T10:16:38;12.70;99.90
62154;DHT22;48140;45.486;9.226;2023-11-21T10:19:04;12.80;99.90
62154;DHT22;48140;45.486;9.226;2023-11-21T10:21:34;13.00;99.90
62154;DHT22;48140;45.486;9.226;2023-11-21T10:24:00;13.50;99.90
62154;DHT22;48140;45.486;9.226;2023-11-21T10:26:26;13.70;99.90
62154;DHT22;48140;45.486;9.226;2023-11-21T10:28:59;13.90;99.90
62154;DHT22;48140;45.486;9.226;2023-11-21T10:31:30;13.80;99.90
62154;DHT22;48140;45.486;9.226;2023-11-21T10:34:17;13.90;99.90
62154;DHT22;48140;45.486;9.226;2023-11-21T10:36:41;13.90;99.90
62154;DHT22;48140;45.486;9.226;2023-11-21T10:39:07;14.50;99.90
62154;DHT22;48140;45.486;9.226;2023-11-21T10:41:33;15.20;99.90
62154;DHT22;48140;45.486;9.226;2023-11-21T10:43:59;15.60;99.90
62154;DHT22;48140;45.486;9.226;2023-11-21T10:46:25;16.20;98.10
62154;DHT22;48140;45.486;9.226;2023-11-21T10:48:54;15.60;97.90
62154;DHT22;48140;45.486;9.226;2023-11-21T10:51:21;15.10;99.10
62154;DHT22;48140;45.486;9.226;2023-11-21T10:53:47;15.30;99.20
62154;DHT22;48140;45.486;9.226;2023-11-21T10:56:13;15.40;98.80
62154;DHT22;48140;45.486;9.226;2023-11-21T10:58:43;15.40;98.60
62154;DHT22;48140;45.486;9.226;2023-11-21T11:01:08;15.40;98.70
62154;DHT22;48140;45.486;9.226;2023-11-21T11:03:36;15.50;98.30
62154;DHT22;48140;45.486;9.226;2023-11-21T11:06:03;15.80;98.00
62154;DHT22;48140;45.486;9.226;2023-11-21T11:08:30;16.70;96.00
62154;DHT22;48140;45.486;9.226;2023-11-21T11:10:56;17.80;93.10
62154;DHT22;48140;45.486;9.226;2023-11-21T11:13:23;17.90;90.40
62154;DHT22;48140;45.486;9.226;2023-11-21T11:15:49;18.00;89.40
62154;DHT22;48140;45.486;9.226;2023-11-21T11:18:15;18.30;88.50
62154;DHT22;48140;45.486;9.226;2023-11-21T11:20:42;18.60;84.50
62154;DHT22;48140;45.486;9.226;2023-11-21T11:23:13;19.10;81.90
62154;DHT22;48140;45.486;9.226;2023-11-21T11:28:11;19.30;77.50
62154;DHT22;48140;45.486;9.226;2023-11-21T11:33:31;17.70;82.40
62154;DHT22;48140;45.486;9.226;2023-11-21T11:36:04;17.90;82.40
62154;DHT22;48140;45.486;9.226;2023-11-21T11:38:31;17.70;82.70
62154;DHT22;48140;45.486;9.226;2023-11-21T11:41:00;18.00;82.20
62154;DHT22;48140;45.486;9.226;2023-11-21T11:43:28;18.30;80.00
62154;DHT22;48140;45.486;9.226;2023-11-21T11:45:57;18.10;80.50
62154;DHT22;48140;45.486;9.226;2023-11-21T11:48:24;19.00;78.50
62154;DHT22;48140;45.486;9.226;2023-11-21T11:53:47;18.80;76.90
62154;DHT22;48140;45.486;9.226;2023-11-21T11:56:20;18.70;76.00
62154;DHT22;48140;45.486;9.226;2023-11-21T11:58:48;19.20;74.90
62154;DHT22;48140;45.486;9.226;2023-11-21T12:01:13;18.90;74.10
62154;DHT22;48140;45.486;9.226;2023-11-21T12:03:39;18.30;77.20
62154;DHT22;48140;45.486;9.226;2023-11-21T12:06:05;18.80;75.80
62154;DHT22;48140;45.486;9.226;2023-11-21T12:08:32;19.20;74.30
62154;DHT22;48140;45.486;9.226;2023-11-21T12:10:58;19.50;73.60
62154;DHT22;48140;45.486;9.226;2023-11-21T12:13:23;20.10;70.90
62154;DHT22;48140;45.486;9.226;2023-11-21T12:15:49;20.60;68.80
62154;DHT22;48140;45.486;9.226;2023-11-21T12:18:14;19.90;68.40
62154;DHT22;48140;45.486;9.226;2023-11-21T12:20:40;20.20;68.50
62154;DHT22;48140;45.486;9.226;2023-11-21T12:23:07;20.60;67.60
62154;DHT22;48140;45.486;9.226;2023-11-21T12:25:34;21.00;66.00
62154;DHT22;48140;45.486;9.226;2023-11-21T12:28:02;21.30;64.10
62154;DHT22;48140;45.486;9.226;2023-11-21T12:30:31;20.40;65.90
62154;DHT22;48140;45.486;9.226;2023-11-21T12:32:57;20.40;65.70
62154;DHT22;48140;45.486;9.226;2023-11-21T12:35:27;19.70;66.70
62154;DHT22;48140;45.486;9.226;2023-11-21T12:37:53;19.50;67.90
62154;DHT22;48140;45.486;9.226;2023-11-21T12:40:19;20.20;67.90
62154;DHT22;48140;45.486;9.226;2023-11-21T12:42:45;21.00;63.40
62154;DHT22;48140;45.486;9.226;2023-11-21T12:47:43;21.20;63.50
62154;DHT22;48140;45.486;9.226;2023-11-21T12:50:09;21.60;61.90
62154;DHT22;48140;45.486;9.226;2023-11-21T12:52:41;21.30;62.40
62154;DHT22;48140;45.486;9.226;2023-11-21T12:55:09;21.60;62.10
62154;DHT22;48140;45.486;9.226;2023-11-21T12:57:40;21.20;61.70
62154;DHT22;48140;45.486;9.226;2023-11-21T13:00:08;21.30;60.70
62154;DHT22;48140;45.486;9.226;2023-11-21T13:02:38;20.80;62.90
62154;DHT22;48140;45.486;9.226;2023-11-21T13:05:07;21.20;61.60
62154;DHT22;48140;45.486;9.226;2023-11-21T13:07:44;21.10;62.50
62154;DHT22;48140;45.486;9.226;2023-11-21T13:10:12;20.90;62.30
62154;DHT22;48140;45.486;9.226;2023-11-21T13:12:42;20.80;62.70
62154;DHT22;48140;45.486;9.226;2023-11-21T13:15:08;21.20;63.00
62154;DHT22;48140;45.486;9.226;2023-11-21T13:17:33;20.90;62.20
62154;DHT22;48140;45.486;9.226;2023-11-21T13:20:00;21.30;62.00
62154;DHT22;48140;45.486;9.226;2023-11-21T13:22:32;21.30;61.00
62154;DHT22;48140;45.486;9.226;2023-11-21T13:24:58;21.10;61.70
62154;DHT22;48140;45.486;9.226;2023-11-21T13:27:24;21.30;61.00
62154;DHT22;48140;45.486;9.226;2023-11-21T13:29:51;21.30;60.90
62154;DHT22;48140;45.486;9.226;2023-11-21T13:32:17;21.10;61.20
62154;DHT22;48140;45.486;9.226;2023-11-21T13:34:46;20.80;61.30
62154;DHT22;48140;45.486;9.226;2023-11-21T13:37:13;21.10;60.70
62154;DHT22;48140;45.486;9.226;2023-11-21T13:39:38;20.90;61.70
62154;DHT22;48140;45.486;9.226;2023-11-21T13:42:09;20.90;61.40
62154;DHT22;48140;45.486;9.226;2023-11-21T13:44:37;20.90;61.50
62154;DHT22;48140;45.486;9.226;2023-11-21T13:47:06;21.30;60.80
62154;DHT22;48140;45.486;9.226;2023-11-21T13:49:31;21.30;59.90
62154;DHT22;48140;45.486;9.226;2023-11-21T13:52:01;20.80;61.10
62154;DHT22;48140;45.486;9.226;2023-11-21T13:54:28;20.70;60.60
62154;DHT22;48140;45.486;9.226;2023-11-21T13:56:54;20.90;60.90
62154;DHT22;48140;45.486;9.226;2023-11-21T13:59:20;21.10;60.50
62154;DHT22;48140;45.486;9.226;2023-11-21T14:01:50;20.60;60.90
62154;DHT22;48140;45.486;9.226;2023-11-21T14:04:25;20.70;60.50
62154;DHT22;48140;45.486;9.226;2023-11-21T14:07:18;20.80;60.90
62154;DHT22;48140;45.486;9.226;2023-11-21T14:10:01;21.20;60.20
62154;DHT22;48140;45.486;9.226;2023-11-21T14:12:27;20.90;60.30
62154;DHT22;48140;45.486;9.226;2023-11-21T14:14:53;20.90;60.80
62154;DHT22;48140;45.486;9.226;2023-11-21T14:17:20;20.50;61.10
62154;DHT22;48140;45.486;9.226;2023-11-21T14:19:48;20.90;60.60
62154;DHT22;48140;45.486;9.226;2023-11-21T14:22:15;21.00;60.10
62154;DHT22;48140;45.486;9.226;2023-11-21T14:24:42;20.70;61.00
62154;DHT22;48140;45.486;9.226;2023-11-21T14:27:12;20.90;60.80
62154;DHT22;48140;45.486;9.226;2023-11-21T14:29:38;20.60;61.50
62154;DHT22;48140;45.486;9.226;2023-11-21T14:32:07;20.70;61.50
62154;DHT22;48140;45.486;9.226;2023-11-21T14:34:33;20.90;61.00
62154;DHT22;48140;45.486;9.226;2023-11-21T14:36:58;21.20;60.30
62154;DHT22;48140;45.486;9.226;2023-11-21T14:39:24;21.00;60.80
62154;DHT22;48140;45.486;9.226;2023-11-21T14:41:53;20.80;60.80
62154;DHT22;48140;45.486;9.226;2023-11-21T14:44:20;20.90;61.10
62154;DHT22;48140;45.486;9.226;2023-11-21T14:46:50;20.60;61.60
62154;DHT22;48140;45.486;9.226;2023-11-21T14:49:16;20.40;62.20
62154;DHT22;48140;45.486;9.226;2023-11-21T14:51:46;20.10;62.20
62154;DHT22;48140;45.486;9.226;2023-11-21T14:54:31;19.50;64.20
62154;DHT22;48140;45.486;9.226;2023-11-21T14:57:08;19.70;64.40
62154;DHT22;48140;45.486;9.226;2023-11-21T14:59:36;19.60;64.10
62154;DHT22;48140;45.486;9.226;2023-11-21T15:02:01;19.50;64.50
62154;DHT22;48140;45.486;9.226;2023-11-21T15:04:41;19.30;65.20
62154;DHT22;48140;45.486;9.226;2023-11-21T15:07:07;19.10;65.50
62154;DHT22;48140;45.486;9.226;2023-11-21T15:09:33;18.70;67.00
62154;DHT22;48140;45.486;9.226;2023-11-21T15:11:59;18.30;68.30
62154;DHT22;48140;45.486;9.226;2023-11-21T15:17:10;17.80;68.80
62154;DHT22;48140;45.486;9.226;2023-11-21T15:19:37;17.50;70.00
62154;DHT22;48140;45.486;9.226;2023-11-21T15:22:04;17.30;71.10
62154;DHT22;48140;45.486;9.226;2023-11-21T15:24:29;16.90;72.50
62154;DHT22;48140;45.486;9.226;2023-11-21T15:26:55;16.50;73.50
62154;DHT22;48140;45.486;9.226;2023-11-21T15:29:20;16.20;74.30
62154;DHT22;48140;45.486;9.226;2023-11-21T15:31:47;16.10;74.40
62154;DHT22;48140;45.486;9.226;2023-11-21T15:34:14;15.90;75.90
62154;DHT22;48140;45.486;9.226;2023-11-21T15:36:40;15.70;77.20
62154;DHT22;48140;45.486;9.226;2023-11-21T15:39:05;15.30;79.50
62154;DHT22;48140;45.486;9.226;2023-11-21T15:41:32;14.90;81.60
62154;DHT22;48140;45.486;9.226;2023-11-21T15:43:58;14.70;84.70